sensor_id;sensor_type;location;lat;lon;timestamp;temperature;humidity
44731;DHT22;30458;47.448;19.032;2022-10-31T00:08:41;14.50;99.90
44731;DHT22;30458;47.448;19.032;2022-10-31T00:18:42;14.50;99.90
44731;DHT22;30458;47.448;19.032;2022-10-31T00:28:43;14.50;99.90
44731;DHT22;30458;47.448;19.032;2022-10-31T00:38:46;14.50;99.90
44731;DHT22;30458;47.448;19.032;2022-10-31T00:48:50;14.60;99.90
44731;DHT22;30458;47.448;19.032;2022-10-31T00:58:53;14.50;99.90
44731;DHT22;30458;47.448;19.032;2022-10-31T01:08:56;14.50;99.90
44731;DHT22;30458;47.448;19.032;2022-10-31T01:18:59;14.50;99.90
44731;DHT22;30458;47.448;19.032;2022-10-31T01:29:06;14.40;99.90
44731;DHT22;30458;47.448;19.032;2022-10-31T01:39:12;14.30;99.90
44731;DHT22;30458;47.448;19.032;2022-10-31T01:59:20;14.10;99.90
44731;DHT22;30458;47.448;19.032;2022-10-31T02:09:22;14.00;99.90
44731;DHT22;30458;47.448;19.032;2022-10-31T02:19:30;14.10;99.90
44731;DHT22;30458;47.448;19.032;2022-10-31T03:00:06;14.10;99.90
44731;DHT22;30458;47.448;19.032;2022-10-31T03:10:16;14.20;99.90
44731;DHT22;30458;47.448;19.032;2022-10-31T03:20:21;14.20;99.90
44731;DHT22;30458;47.448;19.032;2022-10-31T03:30:24;14.20;99.90
44731;DHT22;30458;47.448;19.032;2022-10-31T03:40:31;14.30;99.90
44731;DHT22;30458;47.448;19.032;2022-10-31T03:50:53;14.30;99.90
44731;DHT22;30458;47.448;19.032;2022-10-31T04:00:57;14.20;99.90
44731;DHT22;30458;47.448;19.032;2022-10-31T04:11:06;14.20;99.90
44731;DHT22;30458;47.448;19.032;2022-10-31T04:21:14;14.20;99.90
44731;DHT22;30458;47.448;19.032;2022-10-31T04:31:17;14.00;99.90
44731;DHT22;30458;47.448;19.032;2022-10-31T04:41:21;13.90;99.90
44731;DHT22;30458;47.448;19.032;2022-10-31T04:51:26;13.40;99.90
44731;DHT22;30458;47.448;19.032;2022-10-31T05:01:30;13.50;99.90
44731;DHT22;30458;47.448;19.032;2022-10-31T05:11:33;13.70;99.90
44731;DHT22;30458;47.448;19.032;2022-10-31T05:21:44;13.80;99.90
44731;DHT22;30458;47.448;19.032;2022-10-31T05:31:48;13.70;99.90
44731;DHT22;30458;47.448;19.032;2022-10-31T05:42:08;13.60;99.90
44731;DHT22;30458;47.448;19.032;2022-10-31T05:52:09;13.60;99.90
44731;DHT22;30458;47.448;19.032;2022-10-31T06:02:17;13.60;99.90
44731;DHT22;30458;47.448;19.032;2022-10-31T06:12:36;13.30;99.90
44731;DHT22;30458;47.448;19.032;2022-10-31T06:22:55;13.60;99.90
44731;DHT22;30458;47.448;19.032;2022-10-31T06:33:04;13.80;99.90
44731;DHT22;30458;47.448;19.032;2022-10-31T06:43:09;13.50;99.90
44731;DHT22;30458;47.448;19.032;2022-10-31T06:53:13;13.80;99.90
44731;DHT22;30458;47.448;19.032;2022-10-31T07:03:17;13.90;99.90
44731;DHT22;30458;47.448;19.032;2022-10-31T07:13:22;14.10;99.90
44731;DHT22;30458;47.448;19.032;2022-10-31T07:23:33;14.10;99.90
44731;DHT22;30458;47.448;19.032;2022-10-31T07:33:54;13.70;99.90
44731;DHT22;30458;47.448;19.032;2022-10-31T07:44:03;14.20;99.90
44731;DHT22;30458;47.448;19.032;2022-10-31T07:54:06;14.20;99.90
44731;DHT22;30458;47.448;19.032;2022-10-31T08:04:07;14.10;99.90
44731;DHT22;30458;47.448;19.032;2022-10-31T08:14:34;13.70;99.90
44731;DHT22;30458;47.448;19.032;2022-10-31T08:24:35;13.80;99.90
44731;DHT22;30458;47.448;19.032;2022-10-31T08:34:39;13.50;99.90
44731;DHT22;30458;47.448;19.032;2022-10-31T08:44:58;13.70;99.90
44731;DHT22;30458;47.448;19.032;2022-10-31T08:55:05;13.40;99.90
44731;DHT22;30458;47.448;19.032;2022-10-31T09:05:24;13.10;99.90
44731;DHT22;30458;47.448;19.032;2022-10-31T09:15:27;13.10;99.90
44731;DHT22;30458;47.448;19.032;2022-10-31T09:25:41;13.20;99.90
44731;DHT22;30458;47.448;19.032;2022-10-31T09:36:08;13.30;99.90
44731;DHT22;30458;47.448;19.032;2022-10-31T09:56:31;13.40;99.90
44731;DHT22;30458;47.448;19.032;2022-10-31T10:06:35;13.50;99.90
44731;DHT22;30458;47.448;19.032;2022-10-31T10:17:53;13.50;99.90
44731;DHT22;30458;47.448;19.032;2022-10-31T10:58:55;13.90;99.90
44731;DHT22;30458;47.448;19.032;2022-10-31T11:08:56;13.50;99.90
44731;DHT22;30458;47.448;19.032;2022-10-31T11:19:09;13.40;99.90
44731;DHT22;30458;47.448;19.032;2022-10-31T11:29:21;13.50;99.90
44731;DHT22;30458;47.448;19.032;2022-10-31T11:39:28;13.60;99.90
44731;DHT22;30458;47.448;19.032;2022-10-31T11:49:37;13.90;99.90
44731;DHT22;30458;47.448;19.032;2022-10-31T11:59:39;13.80;99.90
44731;DHT22;30458;47.448;19.032;2022-10-31T12:09:42;13.70;99.90
44731;DHT22;30458;47.448;19.032;2022-10-31T12:30:30;13.50;99.90
44731;DHT22;30458;47.448;19.032;2022-10-31T13:01:14;13.90;99.90
44731;DHT22;30458;47.448;19.032;2022-10-31T13:11:21;13.80;99.90
44731;DHT22;30458;47.448;19.032;2022-10-31T13:32:06;13.70;99.90
44731;DHT22;30458;47.448;19.032;2022-10-31T13:42:23;13.70;99.90
44731;DHT22;30458;47.448;19.032;2022-10-31T13:52:26;13.80;99.90
44731;DHT22;30458;47.448;19.032;2022-10-31T14:02:33;13.70;99.90
44731;DHT22;30458;47.448;19.032;2022-10-31T14:12:38;13.70;99.90
44731;DHT22;30458;47.448;19.032;2022-10-31T14:22:42;13.60;99.90
44731;DHT22;30458;47.448;19.032;2022-10-31T14:32:45;13.60;99.90
44731;DHT22;30458;47.448;19.032;2022-10-31T14:53:35;13.70;99.90
44731;DHT22;30458;47.448;19.032;2022-10-31T15:03:45;13.70;99.90
44731;DHT22;30458;47.448;19.032;2022-10-31T15:13:53;13.60;99.90
44731;DHT22;30458;47.448;19.032;2022-10-31T15:23:56;13.40;99.90
44731;DHT22;30458;47.448;19.032;2022-10-31T15:34:13;13.50;99.90
44731;DHT22;30458;47.448;19.032;2022-10-31T15:54:21;13.30;99.90
44731;DHT22;30458;47.448;19.032;2022-10-31T16:04:23;13.50;99.90
44731;DHT22;30458;47.448;19.032;2022-10-31T16:14:28;13.60;99.90
44731;DHT22;30458;47.448;19.032;2022-10-31T16:24:33;13.50;99.90
44731;DHT22;30458;47.448;19.032;2022-10-31T16:34:34;13.40;99.90
44731;DHT22;30458;47.448;19.032;2022-10-31T16:44:36;13.40;99.90
44731;DHT22;30458;47.448;19.032;2022-10-31T16:54:37;13.20;99.90
44731;DHT22;30458;47.448;19.032;2022-10-31T17:04:40;13.20;99.90
44731;DHT22;30458;47.448;19.032;2022-10-31T17:14:45;13.10;99.90
44731;DHT22;30458;47.448;19.032;2022-10-31T17:24:54;13.20;99.90
44731;DHT22;30458;47.448;19.032;2022-10-31T17:34:57;13.10;99.90
44731;DHT22;30458;47.448;19.032;2022-10-31T17:44:58;13.10;99.90
44731;DHT22;30458;47.448;19.032;2022-10-31T17:54:58;13.10;99.90
44731;DHT22;30458;47.448;19.032;2022-10-31T18:04:59;13.10;99.90
44731;DHT22;30458;47.448;19.032;2022-10-31T18:15:02;13.20;99.90
44731;DHT22;30458;47.448;19.032;2022-10-31T18:25:05;13.20;99.90
44731;DHT22;30458;47.448;19.032;2022-10-31T18:35:06;13.10;99.90
44731;DHT22;30458;47.448;19.032;2022-10-31T18:45:09;13.00;99.90
44731;DHT22;30458;47.448;19.032;2022-10-31T18:55:10;12.70;99.90
44731;DHT22;30458;47.448;19.032;2022-10-31T19:05:14;12.80;99.90
44731;DHT22;30458;47.448;19.032;2022-10-31T19:15:15;12.80;99.90
44731;DHT22;30458;47.448;19.032;2022-10-31T19:25:16;12.70;99.90
44731;DHT22;30458;47.448;19.032;2022-10-31T19:35:18;12.90;99.90
44731;DHT22;30458;47.448;19.032;2022-10-31T19:45:21;12.80;99.90
44731;DHT22;30458;47.448;19.032;2022-10-31T19:55:24;12.70;99.90
44731;DHT22;30458;47.448;19.032;2022-10-31T20:05:25;12.70;99.90
44731;DHT22;30458;47.448;19.032;2022-10-31T20:15:28;12.60;99.90
44731;DHT22;30458;47.448;19.032;2022-10-31T20:25:29;12.50;99.90
44731;DHT22;30458;47.448;19.032;2022-10-31T20:35:36;12.60;99.90
44731;DHT22;30458;47.448;19.032;2022-10-31T20:45:39;12.40;99.90
44731;DHT22;30458;47.448;19.032;2022-10-31T20:55:44;12.30;99.90
44731;DHT22;30458;47.448;19.032;2022-10-31T21:05:55;12.30;99.90
44731;DHT22;30458;47.448;19.032;2022-10-31T21:16:01;12.50;99.90
44731;DHT22;30458;47.448;19.032;2022-10-31T21:26:07;12.50;99.90
44731;DHT22;30458;47.448;19.032;2022-10-31T21:36:08;12.60;99.90
44731;DHT22;30458;47.448;19.032;2022-10-31T21:46:22;12.50;99.90
44731;DHT22;30458;47.448;19.032;2022-10-31T21:56:26;12.60;99.90
44731;DHT22;30458;47.448;19.032;2022-10-31T22:06:32;12.70;99.90
44731;DHT22;30458;47.448;19.032;2022-10-31T22:16:34;12.70;99.90
44731;DHT22;30458;47.448;19.032;2022-10-31T22:26:36;12.60;99.90
44731;DHT22;30458;47.448;19.032;2022-10-31T22:36:40;12.70;99.90
44731;DHT22;30458;47.448;19.032;2022-10-31T22:46:40;12.60;99.90
44731;DHT22;30458;47.448;19.032;2022-10-31T22:56:41;12.60;99.90
44731;DHT22;30458;47.448;19.032;2022-10-31T23:06:42;12.50;99.90
44731;DHT22;30458;47.448;19.032;2022-10-31T23:16:53;12.40;99.90
44731;DHT22;30458;47.448;19.032;2022-10-31T23:26:57;12.50;99.90
44731;DHT22;30458;47.448;19.032;2022-10-31T23:37:08;12.50;99.90
44731;DHT22;30458;47.448;19.032;2022-10-31T23:47:08;12.50;99.90
44731;DHT22;30458;47.448;19.032;2022-10-31T23:57:11;12.40;99.90
